To NAV CANADA Home Page Login to a new session Search on AWWS site Feedback and Comments Disclaimer Vers la page française équivalente Tips FAQ What's new on the site To the Forecasts and Observations / NOTAM section To "File a Flight Plan" website Publications and other links Update of the User's profile FIC Telephone Numbers My Weather Data Folder Route Weather Data Regional Weather Data Local Weather Data To the Forecasts and Observations / NOTAM section
Request Generated 08/22/2017 at 03:29:04 UTC . Weather information available at that time is displayed.

METAR/TAF

SUDBURY/ON    

METAR CYSB 220300Z 20007KT 12SM BKN170 20/19 A2993 RMK AC7 SLP135
DENSITY ALT 2000FT=
METAR CYSB 220200Z 19008KT 12SM BKN170 21/19 A2995 RMK AC7 SLP144
DENSITY ALT 2100FT=
METAR CYSB 220100Z 20006KT 15SM BKN180 21/17 A2997 RMK AC7 SLP149
DENSITY ALT 2100FT=

TAF CYSB 220138Z 2202/2214 20006KT P6SM BKN180
FM220500 18005KT 6SM -SHRA SCT015 OVC025 TEMPO 2205/2207 11/2SM
SHRA BR BKN006 OVC015 PROB30 2205/2207 VRB15G25KT 11/2SM +TSRA
BKN005 OVC020CB
FM220700 18006KT 11/2SM SHRA BR BKN005 OVC010 TEMPO 2207/2211 6SM
-SHRA BR SCT005 OVC010 PROB40 2207/2211 1SM +TSRA BR BKN005
OVC010CB
FM221100 19012KT 3/4SM SHRA BR OVC004
RMK NXT FCST BY 220800Z=
Your time UTC time
Weather data provided by Environment Canada and NAV CANADA